createdAt,value
2022-08-23T00:02:22.885Z,17.35
2022-08-23T00:07:29.722Z,17.31
2022-08-23T00:12:33.323Z,17.29
2022-08-23T00:17:37.247Z,17.25
2022-08-23T00:22:41.377Z,17.21
2022-08-23T00:27:45.098Z,17.18
2022-08-23T00:32:48.614Z,17.14
2022-08-23T00:38:33.355Z,17.11
2022-08-23T00:43:35.375Z,17.06
2022-08-23T00:48:40.223Z,17.03
2022-08-23T00:53:52.444Z,17.00
2022-08-23T00:58:56.780Z,16.97
2022-08-23T01:04:04.403Z,16.96
2022-08-23T01:09:13.949Z,16.93
2022-08-23T01:14:26.947Z,16.89
2022-08-23T01:19:35.929Z,16.87
2022-08-23T01:25:06.513Z,16.84
2022-08-23T01:30:08.561Z,16.80
2022-08-23T01:35:13.688Z,16.76
2022-08-23T01:40:17.405Z,16.74
2022-08-23T01:45:21.153Z,16.71
2022-08-23T01:50:25.245Z,16.68
2022-08-23T01:55:29.002Z,16.66
2022-08-23T02:00:36.253Z,16.64
2022-08-23T02:05:42.911Z,16.59
2022-08-23T02:10:46.414Z,16.56
2022-08-23T02:15:51.744Z,16.51
2022-08-23T02:20:55.046Z,16.50
2022-08-23T02:25:58.697Z,16.50
2022-08-23T02:31:02.009Z,16.51
2022-08-23T02:36:06.304Z,16.56
2022-08-23T02:41:10.113Z,16.64
2022-08-23T02:46:13.581Z,16.73
2022-08-23T02:51:18.017Z,16.81
2022-08-23T02:56:22.122Z,16.87
2022-08-23T03:01:31.745Z,16.93
2022-08-23T03:06:35.531Z,16.98
2022-08-23T03:11:45.801Z,17.05
2022-08-23T03:16:49.112Z,17.10
2022-08-23T03:21:52.422Z,17.17
2022-08-23T03:26:56.143Z,17.25
2022-08-23T03:32:00.285Z,17.33
2022-08-23T03:37:04.331Z,17.41
2022-08-23T03:42:08.333Z,17.50
2022-08-23T03:47:12.778Z,17.63
2022-08-23T03:52:16.075Z,17.79
2022-08-23T03:57:19.593Z,17.92
2022-08-23T04:02:23.210Z,18.04
2022-08-23T04:07:27.279Z,18.13
2022-08-23T04:12:30.662Z,18.19
2022-08-23T04:17:34.374Z,18.22
2022-08-23T04:22:37.993Z,18.24
2022-08-23T04:27:41.812Z,18.28
2022-08-23T04:32:46.351Z,18.33
2022-08-23T04:37:49.868Z,18.41
2022-08-23T04:42:53.043Z,18.47
2022-08-23T04:47:56.973Z,18.49
2022-08-23T04:53:00.719Z,18.51
2022-08-23T04:58:05.667Z,18.53
2022-08-23T05:03:09.083Z,18.57
2022-08-23T05:08:12.497Z,18.60
2022-08-23T05:13:16.017Z,18.67
2022-08-23T05:18:19.426Z,18.81
2022-08-23T05:23:26.632Z,18.98
2022-08-23T05:28:36.702Z,19.16
2022-08-23T05:33:42.067Z,19.37
2022-08-23T05:38:49.837Z,19.62
2022-08-23T05:43:53.805Z,19.84
2022-08-23T05:48:57.519Z,20.01
2022-08-23T05:54:04.252Z,20.12
2022-08-23T05:59:12.513Z,20.21
2022-08-23T06:04:16.367Z,20.35
2022-08-23T06:09:19.755Z,20.33
2022-08-23T06:14:23.890Z,20.36
2022-08-23T06:19:27.421Z,20.56
2022-08-23T06:24:30.935Z,20.81
2022-08-23T06:29:34.360Z,21.13
2022-08-23T06:34:38.799Z,21.39
2022-08-23T06:39:42.948Z,21.62
2022-08-23T06:44:46.430Z,21.89
2022-08-23T06:49:55.390Z,22.24
2022-08-23T06:55:03.297Z,22.69
2022-08-23T07:00:09.305Z,23.04
2022-08-23T07:05:13.500Z,23.30
2022-08-23T07:10:17.016Z,23.84
2022-08-23T07:15:21.120Z,24.17
2022-08-23T07:20:24.586Z,24.60
2022-08-23T07:25:28.284Z,24.90
2022-08-23T07:30:31.559Z,25.31
2022-08-23T07:35:40.081Z,25.12
2022-08-23T07:40:45.625Z,24.66
2022-08-23T07:45:57.715Z,24.17
2022-08-23T07:51:04.042Z,23.84
2022-08-23T07:56:10.232Z,23.67
2022-08-23T08:01:22.428Z,23.55
2022-08-23T08:06:35.575Z,24.18
2022-08-23T08:11:43.648Z,25.01
2022-08-23T08:16:49.284Z,25.77
2022-08-23T08:21:52.728Z,27.07
2022-08-23T08:26:56.236Z,28.73
2022-08-23T08:31:59.547Z,31.28
2022-08-23T08:37:03.165Z,33.89
2022-08-23T08:42:31.462Z,36.73
2022-08-23T08:47:53.462Z,37.95
2022-08-23T08:53:19.464Z,38.75
2022-08-23T08:58:48.567Z,40.00
2022-08-23T09:03:52.412Z,39.27
2022-08-23T09:09:13.569Z,39.54
2022-08-23T09:14:32.089Z,40.44
2022-08-23T09:19:38.461Z,40.61
2022-08-23T09:24:42.193Z,40.61
2022-08-23T09:29:56.564Z,40.68
2022-08-23T09:35:17.728Z,40.95
2022-08-23T09:40:21.465Z,41.11
2022-08-23T09:45:33.161Z,41.20
2022-08-23T09:50:42.483Z,40.62
2022-08-23T09:55:51.617Z,38.48
2022-08-23T10:01:23.233Z,-35.54
2022-08-23T10:06:34.337Z,34.58
2022-08-23T10:11:46.714Z,33.52
2022-08-23T10:17:08.558Z,32.84
2022-08-23T10:22:33.880Z,32.59
2022-08-23T10:28:17.230Z,32.59
2022-08-23T10:33:43.582Z,32.57
2022-08-23T10:39:04.920Z,32.80
2022-08-23T10:44:35.421Z,32.74
2022-08-23T10:49:41.359Z,32.57
2022-08-23T10:55:08.503Z,32.41
2022-08-23T11:00:22.994Z,32.05
2022-08-23T11:05:32.353Z,31.63
2022-08-23T11:10:39.445Z,31.50
2022-08-23T11:15:47.613Z,31.20
2022-08-23T11:20:51.192Z,30.98
2022-08-23T11:25:54.585Z,30.86
2022-08-23T11:31:17.907Z,31.04
2022-08-23T11:36:26.512Z,31.27
2022-08-23T11:41:49.685Z,31.35
2022-08-23T11:46:54.216Z,31.33
2022-08-23T11:52:23.127Z,31.17
2022-08-23T11:57:53.620Z,31.09
2022-08-23T12:03:10.408Z,31.17
2022-08-23T12:08:14.735Z,31.24
2022-08-23T12:13:21.223Z,31.12
2022-08-23T12:18:25.767Z,31.10
2022-08-23T12:23:30.941Z,31.26
2022-08-23T12:28:41.276Z,31.40
2022-08-23T12:34:02.624Z,31.43
2022-08-23T12:39:09.733Z,31.50
2022-08-23T12:44:18.675Z,31.41
2022-08-23T12:49:24.743Z,31.37
2022-08-23T12:54:51.092Z,31.05
2022-08-23T13:00:17.075Z,30.48
2022-08-23T13:05:40.001Z,29.88
2022-08-23T13:10:46.451Z,29.43
2022-08-23T13:15:59.633Z,29.02
2022-08-23T13:21:31.924Z,28.64
2022-08-23T13:26:45.171Z,28.28
2022-08-23T13:32:04.263Z,28.00
2022-08-23T13:37:27.626Z,27.77
2022-08-23T13:42:51.066Z,27.53
2022-08-23T13:48:00.223Z,27.27
2022-08-23T18:20:56.440Z,20.80
2022-08-23T18:26:31.490Z,20.80
2022-08-23T18:31:34.979Z,20.74
2022-08-23T18:36:41.187Z,20.66
2022-08-23T18:41:45.107Z,20.60
2022-08-23T18:46:49.545Z,20.57
2022-08-23T18:51:54.090Z,20.56
2022-08-23T18:56:58.112Z,20.59
2022-08-23T19:02:02.952Z,20.64
2022-08-23T19:07:08.009Z,20.71
2022-08-23T19:12:12.557Z,20.78
2022-08-23T19:17:18.069Z,20.83
2022-08-23T19:22:23.476Z,20.89
2022-08-23T19:27:29.335Z,20.93
2022-08-23T19:32:35.873Z,20.97
2022-08-23T19:37:39.907Z,21.00
2022-08-23T19:42:44.711Z,21.02
2022-08-23T19:47:49.478Z,21.05
2022-08-23T19:52:59.779Z,21.07
2022-08-23T19:58:03.860Z,21.09
2022-08-23T20:03:07.376Z,21.11
2022-08-23T20:08:10.811Z,21.12
2022-08-23T20:13:14.407Z,21.11
2022-08-23T20:18:18.439Z,21.09
2022-08-23T20:23:41.995Z,21.07
2022-08-23T20:28:55.233Z,21.07
2022-08-23T20:34:09.438Z,21.08
2022-08-23T20:39:14.913Z,21.09
2022-08-23T20:44:20.256Z,21.09
2022-08-23T20:49:25.327Z,21.09
2022-08-23T20:54:29.742Z,21.08
2022-08-23T20:59:33.356Z,21.07
2022-08-23T21:04:36.777Z,21.04
2022-08-23T21:09:43.975Z,20.99
2022-08-23T21:14:47.996Z,20.93
2022-08-23T21:19:51.410Z,20.88
2022-08-23T21:24:54.927Z,20.82
2022-08-23T21:29:58.438Z,20.77
2022-08-23T21:35:02.519Z,20.72
2022-08-23T21:40:07.486Z,20.66
2022-08-23T21:45:11.547Z,20.63
2022-08-23T21:50:15.229Z,20.59
2022-08-23T21:55:19.092Z,20.57
2022-08-23T22:00:23.428Z,20.54
2022-08-23T22:05:27.659Z,20.51
2022-08-23T22:10:31.177Z,20.47
2022-08-23T22:15:34.829Z,20.44
2022-08-23T22:20:38.820Z,20.39
2022-08-23T22:25:42.233Z,20.38
2022-08-23T22:30:45.781Z,20.40
2022-08-23T22:35:49.163Z,20.46
2022-08-23T22:40:53.309Z,20.51
2022-08-23T22:46:00.436Z,20.53
2022-08-23T22:51:23.261Z,20.54
2022-08-23T22:56:30.773Z,20.51
2022-08-23T23:01:37.411Z,20.49
2022-08-23T23:06:41.592Z,20.46
2022-08-23T23:11:46.132Z,20.42
2022-08-23T23:16:50.101Z,20.38
2022-08-23T23:21:56.885Z,20.35
2022-08-23T23:27:01.186Z,20.32
2022-08-23T23:32:05.981Z,20.30
2022-08-23T23:37:09.238Z,20.26
2022-08-23T23:42:12.652Z,20.22
2022-08-23T23:47:16.581Z,20.21
2022-08-23T23:52:20.401Z,20.18
2022-08-23T23:57:23.915Z,20.16
